createdAt,value
2022-11-25T00:00:36.616Z,15.52
2022-11-25T00:03:03.552Z,17.00
2022-11-25T00:05:30.600Z,16.55
2022-11-25T00:07:57.536Z,16.80
2022-11-25T00:10:24.453Z,23.27
2022-11-25T00:12:51.361Z,15.80
2022-11-25T00:15:18.261Z,16.98
2022-11-25T00:17:45.181Z,16.75
2022-11-25T00:20:12.085Z,18.85
2022-11-25T00:22:38.970Z,17.48
2022-11-25T00:25:05.846Z,18.95
2022-11-25T00:27:32.793Z,17.65
2022-11-25T00:29:59.679Z,16.55
2022-11-25T00:32:26.582Z,17.40
2022-11-25T00:34:53.467Z,17.55
2022-11-25T00:37:20.358Z,16.90
2022-11-25T00:39:47.241Z,19.67
2022-11-25T00:42:14.144Z,17.70
2022-11-25T00:44:41.608Z,18.38
2022-11-25T00:47:08.868Z,17.77
2022-11-25T00:49:35.746Z,19.05
2022-11-25T00:52:02.629Z,16.63
2022-11-25T00:54:29.506Z,16.73
2022-11-25T00:56:56.408Z,14.90
2022-11-25T00:59:23.294Z,17.92
2022-11-25T01:01:50.190Z,16.17
2022-11-25T01:04:17.097Z,15.45
2022-11-25T01:06:44.011Z,14.98
2022-11-25T01:09:10.906Z,18.02
2022-11-25T01:11:37.821Z,15.18
2022-11-25T01:14:04.714Z,12.98
2022-11-25T01:16:31.664Z,14.32
2022-11-25T01:18:58.614Z,16.05
2022-11-25T01:21:25.515Z,13.90
2022-11-25T01:23:52.408Z,13.50
2022-11-25T01:26:19.302Z,14.02
2022-11-25T01:28:46.201Z,13.32
2022-11-25T01:31:13.304Z,13.80
2022-11-25T01:33:40.214Z,14.93
2022-11-25T01:36:07.151Z,15.77
2022-11-25T01:38:34.033Z,15.05
2022-11-25T01:41:00.962Z,15.57
2022-11-25T01:43:27.868Z,16.73
2022-11-25T01:45:54.830Z,15.77
2022-11-25T01:48:21.766Z,17.15
2022-11-25T01:50:48.698Z,15.52
2022-11-25T01:53:15.601Z,18.05
2022-11-25T01:55:42.537Z,17.73
2022-11-25T01:58:09.432Z,21.55
2022-11-25T02:00:36.342Z,18.85
2022-11-25T02:03:03.232Z,23.52
2022-11-25T02:05:33.763Z,18.00
2022-11-25T02:08:00.902Z,13.20
2022-11-25T02:10:27.808Z,29.58
2022-11-25T02:12:54.706Z,14.63
2022-11-25T02:15:21.587Z,14.00
2022-11-25T02:17:48.476Z,17.17
2022-11-25T02:20:15.368Z,19.90
2022-11-25T02:22:42.275Z,21.65
2022-11-25T02:25:09.184Z,18.60
2022-11-25T02:27:36.121Z,12.07
2022-11-25T02:30:03.066Z,13.05
2022-11-25T02:32:29.979Z,13.25
2022-11-25T02:34:56.879Z,15.00
2022-11-25T02:37:23.968Z,16.90
2022-11-25T02:39:50.848Z,15.35
2022-11-25T02:42:17.772Z,14.88
2022-11-25T02:44:44.671Z,11.85
2022-11-25T02:47:11.572Z,11.30
2022-11-25T02:49:38.461Z,11.80
2022-11-25T02:52:05.418Z,12.80
2022-11-25T02:54:32.327Z,12.98
2022-11-25T02:56:59.243Z,12.68
2022-11-25T02:59:26.139Z,19.13
2022-11-25T03:01:54.059Z,18.02
2022-11-25T03:04:21.031Z,25.52
2022-11-25T03:06:47.936Z,11.88
2022-11-25T03:09:14.851Z,13.88
2022-11-25T03:11:41.835Z,13.70
2022-11-25T03:14:08.775Z,17.45
2022-11-25T03:16:35.767Z,13.13
2022-11-25T03:19:02.678Z,13.73
2022-11-25T03:21:29.580Z,12.82
2022-11-25T03:23:56.508Z,15.82
2022-11-25T03:26:23.409Z,13.50
2022-11-25T03:28:50.290Z,13.90
2022-11-25T03:31:17.221Z,13.77
2022-11-25T03:33:44.160Z,13.63
2022-11-25T03:36:11.038Z,14.15
2022-11-25T03:38:37.924Z,15.32
2022-11-25T03:41:04.801Z,14.05
2022-11-25T03:43:31.694Z,15.75
2022-11-25T03:45:58.655Z,16.48
2022-11-25T03:48:25.579Z,15.90
2022-11-25T03:50:52.482Z,16.80
2022-11-25T03:53:19.427Z,16.58
2022-11-25T03:55:46.329Z,16.65
2022-11-25T03:58:13.225Z,15.50
2022-11-25T04:00:40.127Z,15.43
2022-11-25T04:03:07.041Z,19.40
2022-11-25T04:05:33.941Z,16.00
2022-11-25T04:08:00.914Z,17.77
2022-11-25T04:10:27.830Z,17.35
2022-11-25T04:12:54.733Z,14.88
2022-11-25T04:15:21.635Z,18.33
2022-11-25T04:17:48.587Z,15.43
2022-11-25T04:20:15.490Z,15.13
2022-11-25T04:22:42.419Z,15.98
2022-11-25T04:25:09.366Z,17.88
2022-11-25T04:27:36.312Z,26.75
2022-11-25T04:30:03.266Z,13.63
2022-11-25T04:32:30.238Z,17.02
2022-11-25T04:34:57.144Z,15.32
2022-11-25T04:37:24.038Z,16.65
2022-11-25T04:39:50.912Z,13.73
2022-11-25T04:42:17.796Z,21.30
2022-11-25T04:44:56.054Z,16.73
2022-11-25T04:47:31.578Z,19.10
2022-11-25T04:49:58.523Z,18.20
2022-11-25T04:52:25.424Z,17.15
2022-11-25T04:54:52.308Z,18.65
2022-11-25T04:57:19.296Z,15.52
2022-11-25T04:59:46.193Z,14.45
2022-11-25T05:02:13.165Z,16.10
2022-11-25T05:04:40.117Z,15.07
2022-11-25T05:07:07.554Z,14.23
2022-11-25T05:09:34.516Z,16.52
2022-11-25T05:12:01.434Z,16.80
2022-11-25T05:14:29.404Z,14.38
2022-11-25T05:16:56.362Z,16.23
2022-11-25T05:19:23.312Z,19.77
2022-11-25T05:21:50.230Z,27.30
2022-11-25T05:24:23.567Z,19.67
2022-11-25T05:26:50.527Z,14.30
2022-11-25T05:29:17.481Z,25.48
2022-11-25T05:31:45.703Z,14.43
2022-11-25T05:34:13.737Z,17.45
2022-11-25T05:36:40.634Z,15.50
2022-11-25T05:39:07.541Z,30.00
2022-11-25T05:41:34.676Z,16.25
2022-11-25T05:44:01.808Z,16.23
2022-11-25T05:46:28.748Z,16.30
2022-11-25T05:48:55.766Z,32.75
2022-11-25T05:51:22.646Z,16.45
2022-11-25T05:53:52.660Z,15.48
2022-11-25T05:56:19.559Z,14.43
2022-11-25T05:58:46.509Z,15.55
2022-11-25T06:01:22.927Z,15.07
2022-11-25T06:03:49.965Z,17.45
2022-11-25T06:06:16.878Z,23.80
2022-11-25T06:08:43.956Z,21.52
2022-11-25T06:11:10.920Z,18.35
2022-11-25T06:13:37.802Z,15.90
2022-11-25T06:16:07.716Z,15.70
2022-11-25T06:18:34.949Z,17.15
2022-11-25T06:21:01.850Z,17.95
2022-11-25T06:23:28.765Z,18.90
2022-11-25T06:25:55.718Z,15.15
2022-11-25T06:28:22.618Z,16.27
2022-11-25T06:30:49.578Z,21.65
2022-11-25T06:33:16.514Z,21.50
2022-11-25T06:35:43.490Z,19.38
2022-11-25T06:38:10.543Z,20.25
2022-11-25T06:40:37.435Z,16.67
2022-11-25T06:43:04.363Z,18.88
2022-11-25T06:45:31.270Z,18.02
2022-11-25T06:47:58.225Z,25.77
2022-11-25T06:50:25.105Z,18.02
2022-11-25T06:52:52.004Z,17.92
2022-11-25T06:55:18.896Z,21.70
2022-11-25T06:57:45.850Z,19.58
2022-11-25T07:00:12.726Z,18.77
2022-11-25T07:02:44.001Z,23.65
2022-11-25T07:05:12.323Z,22.10
2022-11-25T07:07:40.747Z,18.05
2022-11-25T07:10:07.694Z,17.08
2022-11-25T07:12:34.781Z,24.63
2022-11-25T07:15:01.724Z,18.60
2022-11-25T07:17:28.639Z,18.98
2022-11-25T07:19:55.590Z,18.98
2022-11-25T07:22:22.516Z,17.75
2022-11-25T07:24:49.477Z,19.15
2022-11-25T07:27:16.529Z,21.27
2022-11-25T07:30:03.112Z,17.52
2022-11-25T07:32:30.383Z,20.30
2022-11-25T07:34:57.285Z,18.45
2022-11-25T07:37:24.214Z,23.67
2022-11-25T07:39:51.121Z,16.80
2022-11-25T07:42:18.023Z,20.05
2022-11-25T07:44:44.925Z,19.60
2022-11-25T07:47:11.793Z,17.02
2022-11-25T07:49:39.088Z,19.95
2022-11-25T07:52:14.560Z,19.67
2022-11-25T07:54:41.640Z,17.52
2022-11-25T07:57:16.034Z,18.13
2022-11-25T07:59:42.993Z,17.25
2022-11-25T08:02:10.088Z,16.88
2022-11-25T08:04:37.163Z,18.27
2022-11-25T08:07:04.349Z,17.60
2022-11-25T08:09:36.588Z,16.95
2022-11-25T08:12:14.072Z,17.45
2022-11-25T08:14:41.017Z,14.38
2022-11-25T08:17:18.748Z,16.77
2022-11-25T08:19:45.716Z,16.60
2022-11-25T08:22:20.316Z,18.38
2022-11-25T08:24:47.309Z,16.10
2022-11-25T08:27:14.337Z,15.70
2022-11-25T08:29:44.136Z,15.68
2022-11-25T08:32:12.548Z,17.08
2022-11-25T08:34:39.516Z,16.42
2022-11-25T08:37:13.428Z,17.50
2022-11-25T08:39:56.445Z,15.43
2022-11-25T08:42:23.738Z,14.52
2022-11-25T08:44:50.766Z,15.15
2022-11-25T08:47:18.190Z,14.55
2022-11-25T08:49:48.510Z,16.98
2022-11-25T08:52:15.675Z,17.85
2022-11-25T08:54:44.683Z,15.88
2022-11-25T08:57:11.618Z,17.42
2022-11-25T08:59:38.700Z,13.57
2022-11-25T09:02:05.864Z,15.27
2022-11-25T09:04:32.848Z,14.23
2022-11-25T09:07:02.966Z,16.20
2022-11-25T09:09:30.063Z,16.33
2022-11-25T09:11:57.025Z,15.88
2022-11-25T09:14:33.069Z,14.48
2022-11-25T09:19:40.956Z,15.95
2022-11-25T09:22:08.046Z,15.48
2022-11-25T09:24:35.095Z,16.98
2022-11-25T09:27:02.189Z,16.73
2022-11-25T09:29:29.156Z,17.55
2022-11-25T09:31:56.288Z,17.85
2022-11-25T09:34:23.345Z,15.65
2022-11-25T09:36:50.402Z,15.98
2022-11-25T09:39:17.397Z,16.10
2022-11-25T09:41:44.442Z,15.65
2022-11-25T09:44:11.416Z,15.88
2022-11-25T09:46:38.466Z,15.63
2022-11-25T09:49:05.519Z,14.82
2022-11-25T09:51:32.426Z,16.08
2022-11-25T09:53:59.350Z,16.25
2022-11-25T09:56:26.244Z,14.55
2022-11-25T09:58:53.196Z,14.32
2022-11-25T10:01:20.088Z,15.60
2022-11-25T10:03:47.200Z,17.70
2022-11-25T10:06:14.219Z,15.68
2022-11-25T10:08:41.221Z,15.32
2022-11-25T10:11:09.408Z,15.63
2022-11-25T10:13:36.316Z,15.95
2022-11-25T10:16:03.539Z,19.80
2022-11-25T10:18:30.548Z,14.70
2022-11-25T10:20:57.578Z,16.40
2022-11-25T10:23:28.509Z,15.77
2022-11-25T10:28:22.545Z,15.70
2022-11-25T10:30:49.497Z,18.80
2022-11-25T10:33:16.393Z,15.43
2022-11-25T10:35:43.296Z,15.52
2022-11-25T10:38:13.361Z,17.38
2022-11-25T10:40:44.365Z,15.10
2022-11-25T10:43:11.280Z,17.48
2022-11-25T10:45:38.196Z,13.95
2022-11-25T10:48:05.100Z,19.60
2022-11-25T10:50:32.002Z,15.52
2022-11-25T10:52:58.941Z,16.02
2022-11-25T10:55:25.850Z,15.40
2022-11-25T10:57:52.808Z,18.45
2022-11-25T11:00:19.793Z,19.50
2022-11-25T11:02:48.156Z,16.52
2022-11-25T11:05:15.199Z,18.77
2022-11-25T11:07:42.209Z,17.85
2022-11-25T11:10:09.133Z,17.77
2022-11-25T11:12:36.037Z,16.52
2022-11-25T11:15:02.961Z,17.48
2022-11-25T11:17:34.730Z,17.08
2022-11-25T11:20:03.511Z,18.52
2022-11-25T11:22:30.422Z,17.42
2022-11-25T11:24:57.333Z,15.00
2022-11-25T11:27:24.292Z,13.57
2022-11-25T11:29:51.210Z,15.07
2022-11-25T11:32:18.290Z,14.63
2022-11-25T11:34:45.193Z,15.88
2022-11-25T11:37:12.107Z,15.43
2022-11-25T11:39:39.053Z,15.25
2022-11-25T11:42:06.354Z,14.85
2022-11-25T11:44:33.394Z,14.55
2022-11-25T11:47:00.566Z,14.77
2022-11-25T11:49:30.955Z,16.92
2022-11-25T11:51:57.924Z,14.23
2022-11-25T11:54:24.812Z,15.95
2022-11-25T11:56:55.226Z,16.58
2022-11-25T11:59:22.459Z,19.33
2022-11-25T12:01:49.506Z,14.45
2022-11-25T12:04:16.530Z,17.25
2022-11-25T12:06:43.530Z,14.15
2022-11-25T12:09:10.737Z,15.55
2022-11-25T12:11:37.807Z,16.67
2022-11-25T12:14:04.736Z,14.80
2022-11-25T12:16:32.811Z,17.00
2022-11-25T12:18:59.977Z,15.35
2022-11-25T12:21:26.913Z,15.00
2022-11-25T12:23:53.904Z,13.65
2022-11-25T12:26:20.920Z,13.75
2022-11-25T12:28:47.824Z,15.68
2022-11-25T12:31:14.827Z,14.55
2022-11-25T12:33:41.817Z,15.32
2022-11-25T12:36:08.763Z,15.95
2022-11-25T12:38:35.703Z,17.52
2022-11-25T12:41:02.649Z,15.23
2022-11-25T12:43:29.693Z,12.52
2022-11-25T12:45:56.743Z,16.75
2022-11-25T12:48:23.765Z,14.00
2022-11-25T12:50:50.710Z,14.82
2022-11-25T12:53:17.656Z,14.65
2022-11-25T12:55:44.652Z,14.95
2022-11-25T12:58:11.755Z,14.73
2022-11-25T13:00:42.819Z,14.55
2022-11-25T13:03:13.907Z,15.25
2022-11-25T13:08:08.369Z,16.30
2022-11-25T13:10:35.354Z,13.82
2022-11-25T13:13:02.674Z,15.45
2022-11-25T13:15:30.381Z,15.90
2022-11-25T13:17:57.623Z,14.65
2022-11-25T13:20:24.589Z,16.92
2022-11-25T13:22:51.512Z,16.77
2022-11-25T13:25:18.422Z,15.48
2022-11-25T13:27:45.332Z,14.88
2022-11-25T13:30:12.245Z,16.92
2022-11-25T13:32:39.169Z,15.55
2022-11-25T13:35:06.079Z,17.05
2022-11-25T13:37:36.293Z,16.30
2022-11-25T13:40:03.607Z,14.85
2022-11-25T13:42:30.489Z,15.80
2022-11-25T13:44:57.386Z,15.55
2022-11-25T13:47:24.273Z,17.90
2022-11-25T13:49:51.179Z,14.32
2022-11-25T13:52:18.069Z,15.27
2022-11-25T13:54:45.239Z,14.25
2022-11-25T13:57:12.142Z,15.55
2022-11-25T13:59:43.227Z,16.42
2022-11-25T14:04:37.597Z,14.27
2022-11-25T14:07:04.784Z,15.20
2022-11-25T14:09:31.736Z,15.50
2022-11-25T14:11:58.803Z,16.65
2022-11-25T14:14:25.765Z,15.25
2022-11-25T14:16:52.768Z,17.05
2022-11-25T14:19:49.980Z,18.30
2022-11-25T14:22:06.684Z,13.57
2022-11-25T14:24:33.618Z,13.30
2022-11-25T14:27:00.613Z,17.20
2022-11-25T14:29:27.584Z,13.65
2022-11-25T14:31:54.647Z,16.13
2022-11-25T14:34:21.687Z,15.75
2022-11-25T14:36:48.716Z,20.15
2022-11-25T14:39:15.662Z,15.43
2022-11-25T14:41:42.633Z,20.83
2022-11-25T14:44:09.578Z,18.42
2022-11-25T14:46:36.504Z,16.65
2022-11-25T14:49:07.648Z,15.82
2022-11-25T14:51:41.508Z,15.93
2022-11-25T14:54:08.538Z,18.15
2022-11-25T14:56:35.446Z,15.00
2022-11-25T14:59:02.494Z,18.38
2022-11-25T15:01:38.751Z,16.17
2022-11-25T15:04:07.001Z,19.00
2022-11-25T15:06:43.303Z,16.00
2022-11-25T15:09:10.344Z,15.70
2022-11-25T15:11:37.394Z,15.38
2022-11-25T15:14:04.752Z,15.40
2022-11-25T15:16:31.852Z,13.40
2022-11-25T15:18:58.934Z,16.55
2022-11-25T15:55:36.361Z,18.80
2022-11-25T15:58:04.396Z,17.02
2022-11-25T16:00:31.786Z,15.23
2022-11-25T16:03:00.033Z,15.73
2022-11-25T16:05:28.027Z,17.00
2022-11-25T16:07:57.977Z,17.00
2022-11-25T16:13:06.062Z,16.20
2022-11-25T16:15:42.013Z,17.70
2022-11-25T16:21:01.203Z,15.05
2022-11-25T17:27:35.213Z,16.23
2022-11-25T17:41:54.361Z,18.35
2022-11-25T17:44:23.727Z,19.58
2022-11-25T17:46:50.992Z,19.73
2022-11-25T17:49:20.277Z,21.55
2022-11-25T17:51:51.542Z,20.45
2022-11-25T17:56:59.558Z,23.02
2022-11-25T17:59:26.704Z,23.40
2022-11-25T18:01:53.815Z,22.25
2022-11-25T18:04:20.899Z,21.25
2022-11-25T18:06:47.951Z,19.23
2022-11-25T18:09:14.988Z,20.92
2022-11-25T18:11:44.021Z,19.90
2022-11-25T18:14:20.969Z,22.35
2022-11-25T18:16:48.080Z,21.50
2022-11-25T18:19:16.162Z,20.55
2022-11-25T18:21:43.070Z,20.38
2022-11-25T18:24:09.992Z,18.88
2022-11-25T18:26:36.913Z,20.65
2022-11-25T18:29:03.847Z,27.50
2022-11-25T18:31:30.815Z,25.80
2022-11-25T18:33:57.737Z,27.92
2022-11-25T18:36:24.677Z,28.77
2022-11-25T18:38:51.590Z,29.13
2022-11-25T18:41:18.574Z,27.20
2022-11-25T18:43:45.546Z,27.05
2022-11-25T18:46:12.481Z,22.35
2022-11-25T18:48:39.494Z,24.75
2022-11-25T18:51:06.399Z,21.92
2022-11-25T18:53:33.286Z,22.65
2022-11-25T18:56:00.200Z,20.75
2022-11-25T18:58:27.168Z,19.10
2022-11-25T19:00:54.141Z,18.60
2022-11-25T19:03:21.128Z,26.48
2022-11-25T19:05:48.020Z,22.27
2022-11-25T19:08:14.938Z,20.95
2022-11-25T19:10:41.846Z,25.30
2022-11-25T19:13:08.757Z,22.10
2022-11-25T19:15:35.815Z,21.70
2022-11-25T19:18:02.713Z,20.40
2022-11-25T19:20:29.594Z,24.25
2022-11-25T19:23:00.654Z,25.15
2022-11-25T19:25:28.260Z,22.45
2022-11-25T19:27:55.196Z,22.13
2022-11-25T19:30:22.107Z,23.30
2022-11-25T19:32:49.181Z,26.13
2022-11-25T19:35:16.082Z,22.38
2022-11-25T19:37:43.046Z,21.92
2022-11-25T19:40:09.971Z,24.92
2022-11-25T19:42:36.953Z,20.55
2022-11-25T19:45:03.896Z,22.73
2022-11-25T19:47:30.837Z,22.98
2022-11-25T19:49:57.939Z,21.92
2022-11-25T19:52:24.859Z,24.20
2022-11-25T19:54:51.773Z,25.70
2022-11-25T19:57:18.687Z,26.50
2022-11-25T19:59:45.638Z,27.23
2022-11-25T20:02:12.629Z,23.55
2022-11-25T20:04:39.671Z,25.40
2022-11-25T20:07:06.657Z,27.30
2022-11-25T20:09:33.631Z,23.30
2022-11-25T20:12:00.564Z,24.30
2022-11-25T20:14:27.489Z,23.30
2022-11-25T20:16:54.504Z,22.27
2022-11-25T20:19:21.644Z,24.83
2022-11-25T20:21:48.575Z,22.90
2022-11-25T20:24:15.521Z,22.08
2022-11-25T20:26:42.478Z,22.35
2022-11-25T20:29:09.387Z,24.67
2022-11-25T20:31:36.532Z,24.92
2022-11-25T20:34:03.455Z,22.67
2022-11-25T20:36:30.465Z,24.92
2022-11-25T20:38:57.355Z,22.50
2022-11-25T20:41:27.682Z,23.77
2022-11-25T20:43:55.060Z,20.25
2022-11-25T20:46:21.991Z,22.33
2022-11-25T20:48:48.952Z,20.15
2022-11-25T20:51:15.963Z,25.13
2022-11-25T20:53:42.888Z,24.13
2022-11-25T21:13:33.480Z,21.45
2022-11-25T22:04:36.054Z,23.63
2022-11-25T22:23:58.835Z,28.17
2022-11-25T22:32:19.748Z,25.25
2022-11-25T23:25:22.435Z,25.20
2022-11-25T23:27:49.393Z,24.08
2022-11-25T23:30:16.399Z,25.25
2022-11-25T23:35:24.193Z,26.77
2022-11-25T23:43:34.500Z,29.08
2022-11-25T23:46:01.522Z,26.27
2022-11-25T23:48:28.462Z,33.63
2022-11-25T23:50:55.350Z,28.52
2022-11-25T23:53:22.312Z,33.13
2022-11-25T23:55:49.224Z,29.23
2022-11-25T23:58:16.160Z,32.25
